createdAt,value
2018-08-22T00:00:39.247Z,1012.85
2018-08-22T00:01:20.064Z,1012.89
2018-08-22T00:02:00.906Z,1012.86
2018-08-22T00:02:41.719Z,1012.84
2018-08-22T00:03:22.410Z,1012.86
2018-08-22T00:04:03.187Z,1012.84
2018-08-22T00:04:43.904Z,1012.84
2018-08-22T00:05:24.749Z,1012.84
2018-08-22T00:06:05.559Z,1012.84
2018-08-22T00:06:46.354Z,1012.84
2018-08-22T00:07:27.144Z,1012.85
2018-08-22T00:08:07.968Z,1012.85
2018-08-22T00:08:48.780Z,1012.85
2018-08-22T00:09:29.545Z,1012.86
2018-08-22T00:10:10.244Z,1012.84
2018-08-22T00:10:51.089Z,1012.83
2018-08-22T00:11:31.866Z,1012.81
2018-08-22T00:12:12.636Z,1012.84
2018-08-22T00:12:53.422Z,1012.81
2018-08-22T00:13:34.167Z,1012.76
2018-08-22T00:14:15.005Z,1012.79
2018-08-22T00:14:55.854Z,1012.81
2018-08-22T00:15:36.632Z,1012.8
2018-08-22T00:16:17.477Z,1012.77
2018-08-22T00:16:58.362Z,1012.77
2018-08-22T00:17:39.192Z,1012.78
2018-08-22T00:18:19.953Z,1012.77
2018-08-22T00:19:00.682Z,1012.75
2018-08-22T00:19:41.386Z,1012.73
2018-08-22T00:20:22.265Z,1012.72
2018-08-22T00:21:03.082Z,1012.75
2018-08-22T00:21:43.937Z,1012.73
2018-08-22T00:22:24.767Z,1012.72
2018-08-22T00:23:05.506Z,1012.72
2018-08-22T00:23:46.309Z,1012.7
2018-08-22T00:24:27.115Z,1012.7
2018-08-22T00:25:07.871Z,1012.67
2018-08-22T00:25:48.617Z,1012.7
2018-08-22T00:26:29.358Z,1012.71
2018-08-22T00:27:10.164Z,1012.71
2018-08-22T00:27:50.963Z,1012.67
2018-08-22T00:28:31.711Z,1012.63
2018-08-22T00:29:12.560Z,1012.67
2018-08-22T00:29:53.332Z,1012.67
2018-08-22T00:30:34.153Z,1012.65
2018-08-22T00:31:14.980Z,1012.64
2018-08-22T00:31:55.725Z,1012.64
2018-08-22T00:32:36.577Z,1012.64
2018-08-22T00:33:17.313Z,1012.61
2018-08-22T00:33:58.076Z,1012.65
2018-08-22T00:34:38.801Z,1012.61
2018-08-22T00:35:19.564Z,1012.63
2018-08-22T00:36:00.415Z,1012.59
2018-08-22T00:36:41.187Z,1012.56
2018-08-22T00:37:22.048Z,1012.54
2018-08-22T00:38:02.876Z,1012.54
2018-08-22T00:38:43.669Z,1012.55
2018-08-22T00:39:24.376Z,1012.6
2018-08-22T00:40:05.209Z,1012.57
2018-08-22T00:40:45.990Z,1012.59
2018-08-22T00:41:26.824Z,1012.57
2018-08-22T00:42:07.513Z,1012.57
2018-08-22T00:42:48.381Z,1012.57
2018-08-22T00:43:29.240Z,1012.56
2018-08-22T00:44:10.022Z,1012.6
2018-08-22T00:44:50.770Z,1012.56
2018-08-22T00:45:31.590Z,1012.57
2018-08-22T00:46:12.435Z,1012.59
2018-08-22T00:46:53.202Z,1012.56
2018-08-22T00:47:33.945Z,1012.6
2018-08-22T00:48:14.675Z,1012.6
2018-08-22T00:48:55.492Z,1012.62
2018-08-22T00:49:36.280Z,1012.61
2018-08-22T00:50:17.042Z,1012.6
2018-08-22T00:50:57.835Z,1012.57
2018-08-22T00:51:38.709Z,1012.6
2018-08-22T00:52:19.496Z,1012.62
2018-08-22T00:53:00.328Z,1012.62
2018-08-22T00:53:41.136Z,1012.57
2018-08-22T00:54:21.841Z,1012.61
2018-08-22T00:55:02.590Z,1012.62
2018-08-22T00:55:43.414Z,1012.6
2018-08-22T00:56:24.312Z,1012.62
2018-08-22T00:57:05.098Z,1012.63
2018-08-22T00:57:45.859Z,1012.61
2018-08-22T00:58:26.603Z,1012.64
2018-08-22T00:59:07.541Z,1012.63
2018-08-22T00:59:48.320Z,1012.64
2018-08-22T01:00:29.383Z,1012.6
2018-08-22T01:01:10.483Z,1012.6
2018-08-22T01:01:51.289Z,1012.56
2018-08-22T01:02:32.117Z,1012.59
2018-08-22T01:03:12.999Z,1012.56
2018-08-22T01:03:53.749Z,1012.54
2018-08-22T01:04:34.514Z,1012.53
2018-08-22T01:05:15.282Z,1012.55
2018-08-22T01:05:56.024Z,1012.52
2018-08-22T01:06:36.911Z,1012.53
2018-08-22T01:07:17.641Z,1012.51
2018-08-22T01:07:58.374Z,1012.54
2018-08-22T01:08:39.216Z,1012.5
2018-08-22T01:09:20.055Z,1012.51
2018-08-22T01:10:00.921Z,1012.48
2018-08-22T01:10:41.649Z,1012.47
2018-08-22T01:11:22.320Z,1012.49
2018-08-22T01:12:03.122Z,1012.49
2018-08-22T01:12:43.964Z,1012.49
2018-08-22T01:13:24.754Z,1012.46
2018-08-22T01:14:05.626Z,1012.47
2018-08-22T01:14:46.418Z,1012.46
2018-08-22T01:15:27.155Z,1012.43
2018-08-22T01:16:08.024Z,1012.44
2018-08-22T01:16:48.758Z,1012.42
2018-08-22T01:17:29.496Z,1012.47
2018-08-22T01:18:10.225Z,1012.42
2018-08-22T01:18:50.972Z,1012.41
2018-08-22T01:19:31.799Z,1012.39
2018-08-22T01:20:12.595Z,1012.44
2018-08-22T01:20:53.355Z,1012.43
2018-08-22T01:21:34.175Z,1012.4
2018-08-22T01:22:15.012Z,1012.41
2018-08-22T01:22:55.874Z,1012.4
2018-08-22T01:23:36.664Z,1012.42
2018-08-22T01:24:17.415Z,1012.4
2018-08-22T01:24:58.260Z,1012.39
2018-08-22T01:25:39.028Z,1012.4
2018-08-22T01:26:19.812Z,1012.39
2018-08-22T01:27:00.547Z,1012.37
2018-08-22T01:27:41.312Z,1012.39
2018-08-22T01:28:22.187Z,1012.4
2018-08-22T01:29:03.006Z,1012.4
2018-08-22T01:29:43.816Z,1012.39
2018-08-22T01:30:24.555Z,1012.4
2018-08-22T01:31:05.280Z,1012.38
2018-08-22T01:31:46.035Z,1012.37
2018-08-22T01:32:26.909Z,1012.37
2018-08-22T01:33:07.695Z,1012.38
2018-08-22T01:33:48.409Z,1012.38
2018-08-22T01:34:29.210Z,1012.35
2018-08-22T01:35:10.005Z,1012.39
2018-08-22T01:35:50.828Z,1012.36
2018-08-22T01:36:31.642Z,1012.34
2018-08-22T01:37:12.409Z,1012.31
2018-08-22T01:37:53.130Z,1012.33
2018-08-22T01:38:33.875Z,1012.31
2018-08-22T01:39:14.730Z,1012.33
2018-08-22T01:39:55.498Z,1012.3
2018-08-22T01:40:36.315Z,1012.36
2018-08-22T01:41:17.072Z,1012.34
2018-08-22T01:41:57.886Z,1012.32
2018-08-22T01:42:38.750Z,1012.36
2018-08-22T01:43:19.491Z,1012.33
2018-08-22T01:44:00.211Z,1012.35
2018-08-22T01:44:40.949Z,1012.36
2018-08-22T01:45:21.766Z,1012.36
2018-08-22T01:46:02.625Z,1012.41
2018-08-22T01:46:43.458Z,1012.42
2018-08-22T01:47:24.279Z,1012.38
2018-08-22T01:48:05.044Z,1012.38
2018-08-22T01:48:45.821Z,1012.39
2018-08-22T01:49:26.566Z,1012.4
2018-08-22T01:50:07.408Z,1012.41
2018-08-22T01:50:48.139Z,1012.35
2018-08-22T01:51:28.949Z,1012.38
2018-08-22T01:52:09.832Z,1012.36
2018-08-22T01:52:50.605Z,1012.33
2018-08-22T01:53:31.472Z,1012.3
2018-08-22T01:54:12.200Z,1012.32
2018-08-22T01:54:52.967Z,1012.3
2018-08-22T01:55:33.836Z,1012.28
2018-08-22T01:56:14.571Z,1012.31
2018-08-22T01:56:55.359Z,1012.27
2018-08-22T01:57:36.079Z,1012.24
2018-08-22T01:58:16.872Z,1012.25
2018-08-22T01:58:57.750Z,1012.22
2018-08-22T01:59:38.419Z,1012.21
2018-08-22T02:00:19.157Z,1012.22
2018-08-22T02:00:59.987Z,1012.21
2018-08-22T02:01:40.778Z,1012.21
2018-08-22T02:02:21.585Z,1012.21
2018-08-22T02:03:02.368Z,1012.2
2018-08-22T02:03:43.176Z,1012.15
2018-08-22T02:04:23.931Z,1012.16
2018-08-22T02:05:04.693Z,1012.16
2018-08-22T02:05:45.532Z,1012.13
2018-08-22T02:06:26.370Z,1012.14
2018-08-22T02:07:07.100Z,1012.12
2018-08-22T02:07:47.866Z,1012.15
2018-08-22T02:08:28.717Z,1012.12
2018-08-22T02:09:09.492Z,1012.12
2018-08-22T02:09:50.237Z,1012.11
2018-08-22T02:10:31.018Z,1012.08
2018-08-22T02:11:11.786Z,1012.08
2018-08-22T02:11:52.599Z,1012.1
2018-08-22T02:12:33.371Z,1012.12
2018-08-22T02:13:14.222Z,1012.09
2018-08-22T02:13:54.981Z,1012.09
2018-08-22T02:14:35.668Z,1012.09
2018-08-22T02:15:16.445Z,1012.12
2018-08-22T02:15:57.251Z,1012.1
2018-08-22T02:16:38.126Z,1012.12
2018-08-22T02:17:18.854Z,1012.13
2018-08-22T02:17:59.623Z,1012.15
2018-08-22T02:18:40.477Z,1012.13
2018-08-22T02:19:21.283Z,1012.14
2018-08-22T02:20:02.078Z,1012.14
2018-08-22T02:20:42.814Z,1012.13
2018-08-22T02:21:23.563Z,1012.13
2018-08-22T02:22:04.317Z,1012.16
2018-08-22T02:22:45.137Z,1012.11
2018-08-22T02:23:25.916Z,1012.12
2018-08-22T02:24:06.743Z,1012.13
2018-08-22T02:24:47.471Z,1012.11
2018-08-22T02:25:28.238Z,1012.12
2018-08-22T02:26:09.112Z,1012.12
2018-08-22T02:26:49.911Z,1012.09
2018-08-22T02:27:30.630Z,1012.11
2018-08-22T02:28:11.365Z,1012.11
2018-08-22T02:28:52.177Z,1012.1
2018-08-22T02:29:32.983Z,1012.16
2018-08-22T02:30:13.727Z,1012.12
2018-08-22T02:30:54.545Z,1012.11
2018-08-22T02:31:35.406Z,1012.13
2018-08-22T02:32:16.199Z,1012.12
2018-08-22T02:32:57.015Z,1012.13
2018-08-22T02:33:37.763Z,1012.1
2018-08-22T02:34:18.593Z,1012.11
2018-08-22T02:34:59.445Z,1012.11
2018-08-22T02:35:40.202Z,1012.15
2018-08-22T02:36:20.957Z,1012.14
2018-08-22T02:37:01.657Z,1012.1
2018-08-22T02:37:42.436Z,1012.11
2018-08-22T02:38:23.274Z,1012.09
2018-08-22T02:39:04.158Z,1012.07
2018-08-22T02:39:44.970Z,1012.06
2018-08-22T02:40:25.715Z,1012.05
2018-08-22T02:41:06.465Z,1012.02
2018-08-22T02:41:47.256Z,1012.04
2018-08-22T02:42:28.099Z,1012.01
2018-08-22T02:43:08.830Z,1012
2018-08-22T02:43:49.661Z,1012.05
2018-08-22T02:44:30.546Z,1012.01
2018-08-22T02:45:11.364Z,1012.05
2018-08-22T02:45:52.174Z,1012.04
2018-08-22T02:46:32.919Z,1012.02
2018-08-22T02:47:13.719Z,1012.03
2018-08-22T02:47:54.561Z,1012.02
2018-08-22T02:48:35.373Z,1012.05
2018-08-22T02:49:16.113Z,1012.06
2018-08-22T02:49:56.879Z,1012.04
2018-08-22T02:50:37.725Z,1012.05
2018-08-22T02:51:18.570Z,1012.05
2018-08-22T02:51:59.300Z,1012.04
2018-08-22T02:52:40.061Z,1012.07
2018-08-22T02:53:20.921Z,1012.11
2018-08-22T02:54:01.712Z,1012.09
2018-08-22T02:54:42.572Z,1012.08
2018-08-22T02:55:23.330Z,1012.07
2018-08-22T02:56:04.065Z,1012.08
2018-08-22T02:56:45.376Z,1012.1
2018-08-22T02:57:26.186Z,1012.06
2018-08-22T02:58:06.978Z,1012.1
2018-08-22T02:58:47.829Z,1012.08
2018-08-22T02:59:28.618Z,1012.07
2018-08-22T03:00:09.393Z,1012.05
2018-08-22T03:00:50.192Z,1012.01
2018-08-22T03:01:31.027Z,1012.06
2018-08-22T03:02:11.796Z,1012.05
2018-08-22T03:02:52.528Z,1012.02
2018-08-22T03:03:33.291Z,1012.02
2018-08-22T03:04:14.135Z,1012.02
2018-08-22T03:04:54.906Z,1012
2018-08-22T03:05:35.653Z,1012.03
2018-08-22T03:06:16.471Z,1012.01
2018-08-22T03:06:57.336Z,1012.02
2018-08-22T03:07:38.165Z,1012
2018-08-22T03:08:18.883Z,1011.99
2018-08-22T03:08:59.664Z,1012.01
2018-08-22T03:09:40.562Z,1012
2018-08-22T03:10:21.342Z,1012.03
2018-08-22T03:11:02.097Z,1012.07
2018-08-22T03:11:42.841Z,1012.05
2018-08-22T03:12:23.619Z,1012.03
2018-08-22T03:13:04.538Z,1012.05
2018-08-22T03:13:45.324Z,1012.04
2018-08-22T03:14:26.164Z,1012.1
2018-08-22T03:15:06.938Z,1012.08
2018-08-22T03:15:47.633Z,1012.09
2018-08-22T03:16:28.386Z,1012.08
2018-08-22T03:17:09.167Z,1012.09
2018-08-22T03:17:49.968Z,1012.08
2018-08-22T03:18:30.660Z,1012.07
2018-08-22T03:19:11.572Z,1012.08
2018-08-22T03:19:52.435Z,1012.06
2018-08-22T03:20:33.322Z,1012.08
2018-08-22T03:21:14.094Z,1012.07
2018-08-22T03:21:54.867Z,1012.08
2018-08-22T03:22:35.605Z,1012.09
2018-08-22T03:23:16.449Z,1012.08
2018-08-22T03:23:57.321Z,1012.06
2018-08-22T03:24:38.095Z,1012.06
2018-08-22T03:25:18.906Z,1012.07
2018-08-22T03:25:59.684Z,1012
2018-08-22T03:26:40.528Z,1012.01
2018-08-22T03:27:21.404Z,1012.02
2018-08-22T03:28:02.175Z,1011.98
2018-08-22T03:28:42.925Z,1012
2018-08-22T03:29:23.773Z,1012.01
2018-08-22T03:30:04.690Z,1011.99
2018-08-22T03:30:45.570Z,1012.01
2018-08-22T03:31:26.422Z,1012.04
2018-08-22T03:32:07.199Z,1012.06
2018-08-22T03:32:47.943Z,1012.08
2018-08-22T03:33:28.731Z,1012.12
2018-08-22T03:34:09.514Z,1012.08
2018-08-22T03:34:50.397Z,1012.09
2018-08-22T03:35:31.140Z,1012.11
2018-08-22T03:36:11.882Z,1012.11
2018-08-22T03:36:52.714Z,1012.12
2018-08-22T03:37:33.468Z,1012.15
2018-08-22T03:38:14.301Z,1012.14
2018-08-22T03:38:55.058Z,1012.14
2018-08-22T03:39:35.918Z,1012.19
2018-08-22T03:40:16.720Z,1012.19
2018-08-22T03:40:57.420Z,1012.14
2018-08-22T03:41:38.137Z,1012.18
2018-08-22T03:42:18.867Z,1012.18
2018-08-22T03:42:59.649Z,1012.15
2018-08-22T03:43:40.474Z,1012.15
2018-08-22T03:44:21.223Z,1012.16
2018-08-22T03:45:02.043Z,1012.24
2018-08-22T03:45:42.891Z,1012.22
2018-08-22T03:46:23.745Z,1012.18
2018-08-22T03:47:04.609Z,1012.2
2018-08-22T03:47:45.333Z,1012.19
2018-08-22T03:48:26.105Z,1012.21
2018-08-22T03:49:06.873Z,1012.23
2018-08-22T03:49:47.673Z,1012.2
2018-08-22T03:50:28.529Z,1012.21
2018-08-22T03:51:09.381Z,1012.17
2018-08-22T03:51:50.117Z,1012.18
2018-08-22T03:52:30.933Z,1012.18
2018-08-22T03:53:11.802Z,1012.15
2018-08-22T03:53:52.523Z,1012.18
2018-08-22T03:54:33.273Z,1012.16
2018-08-22T03:55:14.003Z,1012.18
2018-08-22T03:55:54.802Z,1012.15
2018-08-22T03:56:35.640Z,1012.17
2018-08-22T03:57:16.447Z,1012.18
2018-08-22T03:57:57.224Z,1012.2
2018-08-22T03:58:37.938Z,1012.21
2018-08-22T03:59:18.674Z,1012.22
2018-08-22T03:59:59.472Z,1012.21
2018-08-22T04:00:40.311Z,1012.21
2018-08-22T04:01:21.047Z,1012.23
2018-08-22T04:02:01.775Z,1012.23
2018-08-22T04:02:42.622Z,1012.22
2018-08-22T04:03:23.487Z,1012.23
2018-08-22T04:04:04.353Z,1012.23
2018-08-22T04:04:45.069Z,1012.25
2018-08-22T04:05:25.788Z,1012.27
2018-08-22T04:06:06.525Z,1012.21
2018-08-22T04:06:47.315Z,1012.25
2018-08-22T04:07:28.145Z,1012.23
2018-08-22T04:08:09.002Z,1012.23
2018-08-22T04:08:49.807Z,1012.21
2018-08-22T04:09:30.553Z,1012.24
2018-08-22T04:10:11.334Z,1012.24
2018-08-22T04:10:52.145Z,1012.24
2018-08-22T04:11:32.876Z,1012.22
2018-08-22T04:12:13.632Z,1012.2
2018-08-22T04:12:54.341Z,1012.24
2018-08-22T04:13:35.166Z,1012.24
2018-08-22T04:14:15.918Z,1012.23
2018-08-22T04:14:56.697Z,1012.24
2018-08-22T04:15:37.472Z,1012.24
2018-08-22T04:16:18.305Z,1012.22
2018-08-22T04:16:59.180Z,1012.24
2018-08-22T04:17:39.976Z,1012.23
2018-08-22T04:18:20.694Z,1012.23
2018-08-22T04:19:01.498Z,1012.24
2018-08-22T04:19:42.293Z,1012.25
2018-08-22T04:20:23.057Z,1012.26
2018-08-22T04:21:03.814Z,1012.31
2018-08-22T04:21:44.587Z,1012.23
2018-08-22T04:22:25.411Z,1012.26
2018-08-22T04:23:06.178Z,1012.24
2018-08-22T04:23:47.053Z,1012.28
2018-08-22T04:24:27.822Z,1012.25
2018-08-22T04:25:08.597Z,1012.24
2018-08-22T04:25:49.355Z,1012.23
2018-08-22T04:26:30.171Z,1012.23
2018-08-22T04:27:10.986Z,1012.25
2018-08-22T04:27:51.726Z,1012.24
2018-08-22T04:28:32.523Z,1012.26
2018-08-22T04:29:13.395Z,1012.22
2018-08-22T04:29:54.256Z,1012.23
2018-08-22T04:30:35.019Z,1012.21
2018-08-22T04:31:15.788Z,1012.21
2018-08-22T04:31:56.565Z,1012.21
2018-08-22T04:32:37.377Z,1012.25
2018-08-22T04:33:18.200Z,1012.22
2018-08-22T04:33:59.006Z,1012.19
2018-08-22T04:34:39.879Z,1012.21
2018-08-22T04:35:20.616Z,1012.2
2018-08-22T04:36:01.349Z,1012.2
2018-08-22T04:36:42.185Z,1012.2
2018-08-22T04:37:22.967Z,1012.19
2018-08-22T04:38:03.705Z,1012.17
2018-08-22T04:38:44.475Z,1012.2
2018-08-22T04:39:25.311Z,1012.22
2018-08-22T04:40:06.150Z,1012.23
2018-08-22T04:40:47.017Z,1012.21
2018-08-22T04:41:27.759Z,1012.2
2018-08-22T04:42:08.511Z,1012.21
2018-08-22T04:42:49.244Z,1012.22
2018-08-22T04:43:29.990Z,1012.24
2018-08-22T04:44:10.849Z,1012.23
2018-08-22T04:44:51.595Z,1012.28
2018-08-22T04:45:32.351Z,1012.3
2018-08-22T04:46:13.180Z,1012.27
2018-08-22T04:46:54.001Z,1012.26
2018-08-22T04:47:34.811Z,1012.31
2018-08-22T04:48:15.625Z,1012.3
2018-08-22T04:48:56.328Z,1012.31
2018-08-22T04:49:37.184Z,1012.3
2018-08-22T04:50:17.949Z,1012.31
2018-08-22T04:50:58.686Z,1012.32
2018-08-22T04:51:39.492Z,1012.35
2018-08-22T04:52:20.271Z,1012.33
2018-08-22T04:53:01.135Z,1012.35
2018-08-22T04:53:41.942Z,1012.34
2018-08-22T04:54:22.686Z,1012.39
2018-08-22T04:55:03.584Z,1012.41
2018-08-22T04:55:44.369Z,1012.41
2018-08-22T04:56:25.212Z,1012.41
2018-08-22T04:57:05.927Z,1012.44
2018-08-22T04:57:46.624Z,1012.46
2018-08-22T04:58:27.366Z,1012.43
2018-08-22T04:59:08.193Z,1012.48
2018-08-22T04:59:49.068Z,1012.49
2018-08-22T05:00:29.931Z,1012.5
2018-08-22T05:01:10.693Z,1012.48
2018-08-22T05:01:51.438Z,1012.46
2018-08-22T05:02:32.263Z,1012.47
2018-08-22T05:03:13.085Z,1012.46
2018-08-22T05:03:53.808Z,1012.47
2018-08-22T05:04:34.592Z,1012.5
2018-08-22T05:05:15.351Z,1012.48
2018-08-22T05:05:56.274Z,1012.54
2018-08-22T05:06:37.018Z,1012.56
2018-08-22T05:07:17.742Z,1012.55
2018-08-22T05:07:58.527Z,1012.55
2018-08-22T05:08:39.377Z,1012.54
2018-08-22T05:09:20.206Z,1012.59
2018-08-22T05:10:00.998Z,1012.57
2018-08-22T05:10:41.731Z,1012.55
2018-08-22T05:11:22.542Z,1012.57
2018-08-22T05:12:03.376Z,1012.61
2018-08-22T05:12:44.133Z,1012.57
2018-08-22T05:13:24.901Z,1012.6
2018-08-22T05:14:05.688Z,1012.58
2018-08-22T05:14:46.553Z,1012.59
2018-08-22T05:15:27.356Z,1012.61
2018-08-22T05:16:08.169Z,1012.59
2018-08-22T05:16:48.876Z,1012.62
2018-08-22T05:17:29.625Z,1012.66
2018-08-22T05:18:10.364Z,1012.68
2018-08-22T05:18:51.159Z,1012.66
2018-08-22T05:19:31.930Z,1012.69
2018-08-22T05:20:12.683Z,1012.7
2018-08-22T05:20:53.487Z,1012.69
2018-08-22T05:21:34.291Z,1012.71
2018-08-22T05:22:15.105Z,1012.69
2018-08-22T05:22:55.960Z,1012.72
2018-08-22T05:23:36.668Z,1012.74
2018-08-22T05:24:17.474Z,1012.73
2018-08-22T05:24:58.276Z,1012.77
2018-08-22T05:25:39.052Z,1012.74
2018-08-22T05:26:19.778Z,1012.72
2018-08-22T05:27:00.515Z,1012.73
2018-08-22T05:27:41.366Z,1012.76
2018-08-22T05:28:22.162Z,1012.71
2018-08-22T05:29:02.867Z,1012.72
2018-08-22T05:29:43.643Z,1012.72
2018-08-22T05:30:24.498Z,1012.7
2018-08-22T05:31:05.405Z,1012.74
2018-08-22T05:31:46.143Z,1012.73
2018-08-22T05:32:26.897Z,1012.71
2018-08-22T05:33:07.747Z,1012.74
2018-08-22T05:33:48.561Z,1012.72
2018-08-22T05:34:29.400Z,1012.73
2018-08-22T05:35:10.193Z,1012.77
2018-08-22T05:35:51.000Z,1012.76
2018-08-22T05:36:31.759Z,1012.79
2018-08-22T05:37:12.637Z,1012.75
2018-08-22T05:37:53.464Z,1012.72
2018-08-22T05:38:34.219Z,1012.76
2018-08-22T05:39:14.937Z,1012.78
2018-08-22T05:39:55.705Z,1012.76
2018-08-22T05:40:36.557Z,1012.79
2018-08-22T05:41:17.488Z,1012.75
2018-08-22T05:41:58.268Z,1012.76
2018-08-22T05:42:38.998Z,1012.77
2018-08-22T05:43:19.817Z,1012.76
2018-08-22T05:44:00.582Z,1012.79
2018-08-22T05:44:41.313Z,1012.82
2018-08-22T05:45:22.216Z,1012.81
2018-08-22T05:46:02.911Z,1012.81
2018-08-22T05:46:43.746Z,1012.79
2018-08-22T05:47:24.552Z,1012.79
2018-08-22T05:48:05.308Z,1012.81
2018-08-22T05:48:46.173Z,1012.81
2018-08-22T05:49:26.929Z,1012.82
2018-08-22T05:50:07.766Z,1012.8
2018-08-22T05:50:48.494Z,1012.83
2018-08-22T05:51:29.311Z,1012.84
2018-08-22T05:52:10.167Z,1012.8
2018-08-22T05:52:50.989Z,1012.79
2018-08-22T05:53:31.750Z,1012.82
2018-08-22T05:54:12.572Z,1012.8
2018-08-22T05:54:53.408Z,1012.77
2018-08-22T05:55:34.261Z,1012.83
2018-08-22T05:56:15.023Z,1012.79
2018-08-22T05:56:55.761Z,1012.76
2018-08-22T05:57:36.593Z,1012.76
2018-08-22T05:58:17.422Z,1012.79
2018-08-22T05:58:58.170Z,1012.78
2018-08-22T05:59:38.916Z,1012.76
2018-08-22T06:00:19.698Z,1012.81
2018-08-22T06:01:00.546Z,1012.79
2018-08-22T06:01:41.414Z,1012.81
2018-08-22T06:02:22.178Z,1012.82
2018-08-22T06:03:03.016Z,1012.78
2018-08-22T06:03:43.883Z,1012.82
2018-08-22T06:04:24.672Z,1012.79
2018-08-22T06:05:05.387Z,1012.87
2018-08-22T06:05:46.152Z,1012.88
2018-08-22T06:06:27.015Z,1012.87
2018-08-22T06:07:07.921Z,1012.85
2018-08-22T06:07:48.755Z,1012.88
2018-08-22T06:08:29.569Z,1012.89
2018-08-22T06:09:10.379Z,1012.92
2018-08-22T06:09:51.737Z,1012.9
2018-08-22T06:10:32.482Z,1012.93
2018-08-22T06:11:13.295Z,1012.9
2018-08-22T06:11:54.124Z,1012.93
2018-08-22T06:12:34.866Z,1012.91
2018-08-22T06:13:15.768Z,1012.92
2018-08-22T06:13:56.612Z,1012.93
2018-08-22T06:14:37.449Z,1012.93
2018-08-22T06:15:18.223Z,1012.93
2018-08-22T06:15:58.986Z,1012.92
2018-08-22T06:16:39.759Z,1012.94
2018-08-22T06:17:20.625Z,1012.92
2018-08-22T06:18:01.412Z,1012.91
2018-08-22T06:18:42.353Z,1012.9
2018-08-22T06:19:23.182Z,1012.91
2018-08-22T06:20:03.917Z,1012.91
2018-08-22T06:20:44.878Z,1012.96
2018-08-22T06:21:25.711Z,1012.9
2018-08-22T06:22:06.426Z,1012.94
2018-08-22T06:22:47.222Z,1012.94
2018-08-22T06:23:27.951Z,1012.92
2018-08-22T06:24:08.765Z,1012.93
2018-08-22T06:24:49.665Z,1012.93
2018-08-22T06:25:30.476Z,1012.97
2018-08-22T06:26:11.201Z,1012.98
2018-08-22T06:26:51.953Z,1013
2018-08-22T06:27:32.666Z,1013.01
2018-08-22T06:28:13.492Z,1013
2018-08-22T06:28:54.290Z,1013.04
2018-08-22T06:29:34.998Z,1013
2018-08-22T06:30:15.831Z,1013.05
2018-08-22T06:30:56.638Z,1012.98
2018-08-22T06:31:37.497Z,1013.01
2018-08-22T06:32:18.340Z,1013.03
2018-08-22T06:32:59.085Z,1013.05
2018-08-22T06:33:39.834Z,1013.08
2018-08-22T06:34:20.602Z,1013.04
2018-08-22T06:35:01.357Z,1013.02
2018-08-22T06:35:42.158Z,1013.04
2018-08-22T06:36:22.977Z,1013.06
2018-08-22T06:37:03.730Z,1013.04
2018-08-22T06:37:44.515Z,1013.1
2018-08-22T06:38:25.209Z,1013.07
2018-08-22T06:39:06.044Z,1013.11
2018-08-22T06:39:46.796Z,1013.1
2018-08-22T06:40:27.623Z,1013.15
2018-08-22T06:41:08.394Z,1013.16
2018-08-22T06:41:49.122Z,1013.14
2018-08-22T06:42:29.822Z,1013.14
2018-08-22T06:43:10.668Z,1013.2
2018-08-22T06:43:51.503Z,1013.13
2018-08-22T06:44:32.366Z,1013.16
2018-08-22T06:45:13.165Z,1013.15
2018-08-22T06:45:53.870Z,1013.18
2018-08-22T06:46:34.784Z,1013.15
2018-08-22T06:47:15.611Z,1013.17
2018-08-22T06:47:56.373Z,1013.14
2018-08-22T06:48:37.131Z,1013.11
2018-08-22T06:49:17.846Z,1013.12
2018-08-22T06:49:58.651Z,1013.11
2018-08-22T06:50:39.437Z,1013.11
2018-08-22T06:51:20.231Z,1013.12
2018-08-22T06:52:01.065Z,1013.08
2018-08-22T06:52:41.876Z,1013.1
2018-08-22T06:53:22.622Z,1013.12
2018-08-22T06:54:03.387Z,1013.13
2018-08-22T06:54:44.236Z,1013.16
2018-08-22T06:55:25.001Z,1013.11
2018-08-22T06:56:05.865Z,1013.17
2018-08-22T06:56:46.871Z,1013.15
2018-08-22T06:57:27.699Z,1013.17
2018-08-22T06:58:08.524Z,1013.16
2018-08-22T06:58:49.292Z,1013.16
2018-08-22T06:59:30.102Z,1013.18
2018-08-22T07:00:10.826Z,1013.19
2018-08-22T07:00:51.668Z,1013.2
2018-08-22T07:01:32.467Z,1013.14
2018-08-22T07:02:13.327Z,1013.2
2018-08-22T07:02:54.194Z,1013.16
2018-08-22T07:03:35.004Z,1013.21
2018-08-22T07:04:15.922Z,1013.18
2018-08-22T07:04:56.683Z,1013.14
2018-08-22T07:05:37.481Z,1013.12
2018-08-22T07:06:18.267Z,1013.15
2018-08-22T07:06:59.051Z,1013.18
2018-08-22T07:07:39.877Z,1013.21
2018-08-22T07:08:20.668Z,1013.21
2018-08-22T07:09:01.461Z,1013.17
2018-08-22T07:09:42.270Z,1013.19
2018-08-22T07:10:23.216Z,1013.18
2018-08-22T07:11:04.025Z,1013.2
2018-08-22T07:11:44.802Z,1013.17
2018-08-22T07:12:25.641Z,1013.2
2018-08-22T07:13:06.785Z,1013.18
2018-08-22T07:13:47.574Z,1013.23
2018-08-22T07:14:28.312Z,1013.22
2018-08-22T07:15:09.066Z,1013.2
2018-08-22T07:15:49.932Z,1013.19
2018-08-22T07:16:30.753Z,1013.22
2018-08-22T07:17:11.603Z,1013.23
2018-08-22T07:17:52.448Z,1013.24
2018-08-22T07:18:33.170Z,1013.22
2018-08-22T07:19:13.975Z,1013.22
2018-08-22T07:19:54.857Z,1013.2
2018-08-22T07:20:35.755Z,1013.23
2018-08-22T07:21:16.516Z,1013.16
2018-08-22T07:21:57.309Z,1013.2
2018-08-22T07:22:38.152Z,1013.22
2018-08-22T07:23:18.965Z,1013.22
2018-08-22T07:23:59.832Z,1013.17
2018-08-22T07:24:40.599Z,1013.21
2018-08-22T07:25:21.400Z,1013.16
2018-08-22T07:26:02.231Z,1013.18
2018-08-22T07:26:43.007Z,1013.2
2018-08-22T07:27:24.069Z,1013.2
2018-08-22T07:28:04.661Z,1013.17
2018-08-22T07:28:45.418Z,1013.18
2018-08-22T07:29:26.234Z,1013.17
2018-08-22T07:30:07.252Z,1013.18
2018-08-22T07:30:48.019Z,1013.2
2018-08-22T07:31:28.943Z,1013.19
2018-08-22T07:32:09.761Z,1013.21
2018-08-22T07:32:50.609Z,1013.21
2018-08-22T07:33:31.379Z,1013.24
2018-08-22T07:34:12.085Z,1013.2
2018-08-22T07:34:52.841Z,1013.18
2018-08-22T07:35:33.674Z,1013.17
2018-08-22T07:36:14.523Z,1013.15
2018-08-22T07:36:55.436Z,1013.2
2018-08-22T07:37:36.169Z,1013.19
2018-08-22T07:38:16.898Z,1013.17
2018-08-22T07:38:57.680Z,1013.18
2018-08-22T07:39:38.520Z,1013.13
2018-08-22T07:40:19.319Z,1013.12
2018-08-22T07:41:00.270Z,1013.14
2018-08-22T07:41:40.934Z,1013.14
2018-08-22T07:42:22.602Z,1013.14
2018-08-22T07:43:03.232Z,1013.11
2018-08-22T07:43:43.949Z,1013.16
2018-08-22T07:44:24.795Z,1013.17
2018-08-22T07:45:05.618Z,1013.17
2018-08-22T07:45:46.507Z,1013.17
2018-08-22T07:46:27.259Z,1013.15
2018-08-22T07:47:08.040Z,1013.17
2018-08-22T07:47:48.815Z,1013.16
2018-08-22T07:48:29.601Z,1013.21
2018-08-22T07:49:10.315Z,1013.19
2018-08-22T07:49:51.014Z,1013.17
2018-08-22T07:50:31.879Z,1013.18
2018-08-22T07:51:12.747Z,1013.21
2018-08-22T07:51:53.614Z,1013.19
2018-08-22T07:52:34.443Z,1013.22
2018-08-22T07:53:15.222Z,1013.18
2018-08-22T07:53:55.882Z,1013.21
2018-08-22T07:54:36.613Z,1013.19
2018-08-22T07:55:17.375Z,1013.16
2018-08-22T07:55:58.193Z,1013.18
2018-08-22T07:56:39.049Z,1013.18
2018-08-22T07:57:19.877Z,1013.21
2018-08-22T07:58:00.855Z,1013.19
2018-08-22T07:58:41.684Z,1013.19
2018-08-22T07:59:22.448Z,1013.19
2018-08-22T08:00:03.219Z,1013.21
2018-08-22T08:00:43.930Z,1013.17
2018-08-22T08:01:24.686Z,1013.24
2018-08-22T08:02:05.542Z,1013.22
2018-08-22T08:02:46.301Z,1013.22
2018-08-22T08:03:27.166Z,1013.22
2018-08-22T08:04:07.970Z,1013.22
2018-08-22T08:04:48.769Z,1013.26
2018-08-22T08:05:29.805Z,1013.2
2018-08-22T08:06:10.594Z,1013.23
2018-08-22T08:06:51.338Z,1013.2
2018-08-22T08:07:32.076Z,1013.22
2018-08-22T08:08:12.914Z,1013.23
2018-08-22T08:08:53.742Z,1013.23
2018-08-22T08:09:34.593Z,1013.22
2018-08-22T08:10:15.380Z,1013.23
2018-08-22T08:10:56.113Z,1013.21
2018-08-22T08:11:36.877Z,1013.2
2018-08-22T08:12:17.649Z,1013.2
2018-08-22T08:12:58.512Z,1013.2
2018-08-22T08:13:39.311Z,1013.2
2018-08-22T08:14:20.093Z,1013.21
2018-08-22T08:15:00.950Z,1013.22
2018-08-22T08:15:41.703Z,1013.19
2018-08-22T08:16:22.543Z,1013.2